createdAt,value
2017-10-26T00:00:32.719Z,13.13
2017-10-26T00:01:32.686Z,13.04
2017-10-26T00:02:32.672Z,13.16
2017-10-26T00:03:32.647Z,13.16
2017-10-26T00:04:32.623Z,13.14
2017-10-26T00:05:32.607Z,13.17
2017-10-26T00:06:32.579Z,13.1
2017-10-26T00:07:32.556Z,13.16
2017-10-26T00:08:32.550Z,13.12
2017-10-26T00:09:32.528Z,13.01
2017-10-26T00:10:32.493Z,13.14
2017-10-26T00:11:32.467Z,13.09
2017-10-26T00:12:32.447Z,13.12
2017-10-26T00:13:32.431Z,13.09
2017-10-26T00:14:32.401Z,13.04
2017-10-26T00:15:32.387Z,12.96
2017-10-26T00:16:32.352Z,13.04
2017-10-26T00:17:32.009Z,13.04
2017-10-26T00:18:32.332Z,13.1
2017-10-26T00:19:32.290Z,13.04
2017-10-26T00:20:32.263Z,13.06
2017-10-26T00:21:32.243Z,12.99
2017-10-26T00:22:32.222Z,13.03
2017-10-26T00:23:32.203Z,12.92
2017-10-26T00:24:32.176Z,12.98
2017-10-26T00:25:32.159Z,12.99
2017-10-26T00:26:31.812Z,12.92
2017-10-26T00:27:32.114Z,12.91
2017-10-26T00:28:32.087Z,12.88
2017-10-26T00:29:32.057Z,12.92
2017-10-26T00:30:32.047Z,12.88
2017-10-26T00:31:32.015Z,12.92
2017-10-26T00:32:31.992Z,12.84
2017-10-26T00:33:31.979Z,12.88
2017-10-26T00:34:31.953Z,12.84
2017-10-26T00:35:31.927Z,12.71
2017-10-26T00:36:31.907Z,12.76
2017-10-26T00:37:31.885Z,12.85
2017-10-26T00:38:31.859Z,12.88
2017-10-26T00:39:31.834Z,12.91
2017-10-26T00:40:31.810Z,12.84
2017-10-26T00:41:31.787Z,12.81
2017-10-26T00:42:31.449Z,12.87
2017-10-26T00:43:31.758Z,12.92
2017-10-26T00:44:31.732Z,12.92
2017-10-26T00:45:31.706Z,12.85
2017-10-26T00:46:31.672Z,12.92
2017-10-26T00:47:31.655Z,12.88
2017-10-26T00:48:31.629Z,12.91
2017-10-26T00:49:31.619Z,12.88
2017-10-26T00:50:31.586Z,12.96
2017-10-26T00:51:31.564Z,12.88
2017-10-26T00:52:31.544Z,12.95
2017-10-26T00:53:31.523Z,13.01
2017-10-26T00:54:31.179Z,13.01
2017-10-26T00:55:31.476Z,13.01
2017-10-26T00:56:31.449Z,12.96
2017-10-26T00:57:31.432Z,13.03
2017-10-26T00:58:31.410Z,13.06
2017-10-26T00:59:31.384Z,13.04
2017-10-26T01:00:31.357Z,12.98
2017-10-26T01:01:31.346Z,13.04
2017-10-26T01:02:31.326Z,13.06
2017-10-26T01:03:31.300Z,12.95
2017-10-26T01:04:31.273Z,13.07
2017-10-26T01:05:31.249Z,13.03
2017-10-26T01:06:31.220Z,13.04
2017-10-26T01:07:30.891Z,12.98
2017-10-26T01:08:30.865Z,13.01
2017-10-26T01:09:31.156Z,12.98
2017-10-26T01:10:31.141Z,13.03
2017-10-26T01:11:30.798Z,12.94
2017-10-26T01:12:31.099Z,12.95
2017-10-26T01:13:31.078Z,12.89
2017-10-26T01:14:31.044Z,12.92
2017-10-26T01:15:31.030Z,12.88
2017-10-26T01:16:31.001Z,12.91
2017-10-26T01:17:30.975Z,12.89
2017-10-26T01:18:30.957Z,12.91
2017-10-26T01:19:30.929Z,12.88
2017-10-26T01:20:30.915Z,12.92
2017-10-26T01:21:30.906Z,12.89
2017-10-26T01:22:30.868Z,12.91
2017-10-26T01:23:30.857Z,12.84
2017-10-26T01:24:30.829Z,12.85
2017-10-26T01:25:30.797Z,12.87
2017-10-26T01:26:30.772Z,12.73
2017-10-26T01:27:30.751Z,12.88
2017-10-26T01:28:30.734Z,12.76
2017-10-26T01:29:30.716Z,12.76
2017-10-26T01:30:30.367Z,12.8
2017-10-26T01:31:30.666Z,12.81
2017-10-26T01:32:30.661Z,12.8
2017-10-26T01:33:30.621Z,12.79
2017-10-26T01:34:30.619Z,12.81
2017-10-26T01:35:30.572Z,12.8
2017-10-26T01:36:30.556Z,12.81
2017-10-26T01:37:30.529Z,12.73
2017-10-26T01:38:30.499Z,12.77
2017-10-26T01:39:30.482Z,12.74
2017-10-26T01:40:30.465Z,12.77
2017-10-26T01:41:30.446Z,12.69
2017-10-26T01:42:30.412Z,12.71
2017-10-26T01:43:30.389Z,12.7
2017-10-26T01:44:30.052Z,12.77
2017-10-26T01:45:30.349Z,12.77
2017-10-26T01:46:30.336Z,12.74
2017-10-26T01:47:30.299Z,12.74
2017-10-26T01:48:30.278Z,12.81
2017-10-26T01:49:30.257Z,12.87
2017-10-26T01:50:30.236Z,12.92
2017-10-26T01:51:30.211Z,12.84
2017-10-26T01:52:30.181Z,12.85
2017-10-26T01:53:30.171Z,12.85
2017-10-26T01:54:30.138Z,12.88
2017-10-26T01:55:30.122Z,12.91
2017-10-26T01:56:30.103Z,12.96
2017-10-26T01:57:30.074Z,13.04
2017-10-26T01:58:30.048Z,12.91
2017-10-26T01:59:30.035Z,12.99
2017-10-26T02:00:30.004Z,12.88
2017-10-26T02:01:29.994Z,12.88
2017-10-26T02:02:29.961Z,12.89
2017-10-26T02:03:29.948Z,12.91
2017-10-26T02:04:30.277Z,12.91
2017-10-26T02:05:29.897Z,12.88
2017-10-26T02:06:29.871Z,12.89
2017-10-26T02:07:29.849Z,12.91
2017-10-26T02:08:29.823Z,12.91
2017-10-26T02:09:29.800Z,12.89
2017-10-26T02:10:29.790Z,12.98
2017-10-26T02:11:29.757Z,12.95
2017-10-26T02:12:29.734Z,13.06
2017-10-26T02:13:29.073Z,13.03
2017-10-26T02:14:29.690Z,13.03
2017-10-26T02:15:29.351Z,12.95
2017-10-26T02:16:29.647Z,13.04
2017-10-26T02:17:29.632Z,13.01
2017-10-26T02:18:29.275Z,13.07
2017-10-26T02:19:29.579Z,12.98
2017-10-26T02:20:29.583Z,12.99
2017-10-26T02:21:29.531Z,13.01
2017-10-26T02:22:29.193Z,12.98
2017-10-26T02:23:29.497Z,13.04
2017-10-26T02:24:29.147Z,13.01
2017-10-26T02:25:29.455Z,13.01
2017-10-26T02:26:29.429Z,12.95
2017-10-26T02:27:29.442Z,12.91
2017-10-26T02:28:29.379Z,12.89
2017-10-26T02:29:29.347Z,12.92
2017-10-26T02:30:29.332Z,12.94
2017-10-26T02:31:29.310Z,12.91
2017-10-26T02:32:29.294Z,12.88
2017-10-26T02:33:28.945Z,12.88
2017-10-26T02:34:29.256Z,12.74
2017-10-26T02:35:29.215Z,12.73
2017-10-26T02:36:29.197Z,12.85
2017-10-26T02:37:29.170Z,12.8
2017-10-26T02:38:29.166Z,12.87
2017-10-26T02:39:29.123Z,12.88
2017-10-26T02:40:29.105Z,12.84
2017-10-26T02:41:29.076Z,12.84
2017-10-26T02:42:28.741Z,12.89
2017-10-26T02:43:29.046Z,12.88
2017-10-26T02:44:29.024Z,12.87
2017-10-26T02:45:28.994Z,12.89
2017-10-26T02:46:28.973Z,12.89
2017-10-26T02:47:28.945Z,12.88
2017-10-26T02:48:28.928Z,12.91
2017-10-26T02:49:28.590Z,13.06
2017-10-26T02:50:28.573Z,12.95
2017-10-26T02:51:28.857Z,13.04
2017-10-26T02:52:28.832Z,12.99
2017-10-26T02:53:28.822Z,12.96
2017-10-26T02:54:28.793Z,13.01
2017-10-26T02:55:28.765Z,13.07
2017-10-26T02:56:28.738Z,13.06
2017-10-26T02:57:28.722Z,12.99
2017-10-26T02:58:28.720Z,13.12
2017-10-26T02:59:28.683Z,13.16
2017-10-26T03:00:28.683Z,13.13
2017-10-26T03:01:28.310Z,13.1
2017-10-26T03:02:28.617Z,13.17
2017-10-26T03:03:28.578Z,13.09
2017-10-26T03:04:28.570Z,13.19
2017-10-26T03:05:28.225Z,13.16
2017-10-26T03:06:28.520Z,13.09
2017-10-26T03:07:28.181Z,13.17
2017-10-26T03:08:28.153Z,13.17
2017-10-26T03:09:28.447Z,13.14
2017-10-26T03:10:28.431Z,13.16
2017-10-26T03:11:28.404Z,13.17
2017-10-26T03:12:28.406Z,13.14
2017-10-26T03:13:28.358Z,13.12
2017-10-26T03:14:28.337Z,13.14
2017-10-26T03:15:28.319Z,13.14
2017-10-26T03:16:28.289Z,13.14
2017-10-26T03:17:28.270Z,13.25
2017-10-26T03:18:28.248Z,13.24
2017-10-26T03:19:28.224Z,13.09
2017-10-26T03:20:28.202Z,13.12
2017-10-26T03:21:28.191Z,13.24
2017-10-26T03:22:28.162Z,13.21
2017-10-26T03:23:28.137Z,13.19
2017-10-26T03:24:28.121Z,13.14
2017-10-26T03:25:28.089Z,13.14
2017-10-26T03:26:28.068Z,13.06
2017-10-26T03:27:27.734Z,13.09
2017-10-26T03:28:28.036Z,13.03
2017-10-26T03:29:28.006Z,13.09
2017-10-26T03:30:27.990Z,13.06
2017-10-26T03:31:27.948Z,13.01
2017-10-26T03:32:27.938Z,12.99
2017-10-26T03:33:27.912Z,13.03
2017-10-26T03:34:27.882Z,12.95
2017-10-26T03:35:27.865Z,12.98
2017-10-26T03:36:27.850Z,13.04
2017-10-26T03:37:27.822Z,12.98
2017-10-26T03:38:27.813Z,12.98
2017-10-26T03:39:27.450Z,12.98
2017-10-26T03:40:27.759Z,13.01
2017-10-26T03:41:27.753Z,12.87
2017-10-26T03:42:27.718Z,12.88
2017-10-26T03:43:28.319Z,12.89
2017-10-26T03:44:27.666Z,12.88
2017-10-26T03:45:27.641Z,12.88
2017-10-26T03:46:27.616Z,12.91
2017-10-26T03:47:27.592Z,12.88
2017-10-26T03:48:27.570Z,12.87
2017-10-26T03:49:27.544Z,12.87
2017-10-26T03:50:27.525Z,12.91
2017-10-26T03:51:27.503Z,12.85
2017-10-26T03:52:27.482Z,12.87
2017-10-26T03:53:27.451Z,12.87
2017-10-26T03:54:27.433Z,12.88
2017-10-26T03:55:27.418Z,12.88
2017-10-26T03:56:27.390Z,12.81
2017-10-26T03:57:27.388Z,12.8
2017-10-26T03:58:27.353Z,12.74
2017-10-26T03:59:27.320Z,12.77
2017-10-26T04:00:27.305Z,12.8
2017-10-26T04:01:27.285Z,12.76
2017-10-26T04:02:27.253Z,12.76
2017-10-26T04:03:27.235Z,12.8
2017-10-26T04:04:27.213Z,12.76
2017-10-26T04:05:27.184Z,12.84
2017-10-26T04:06:27.164Z,12.92
2017-10-26T04:07:27.144Z,12.76
2017-10-26T04:08:27.123Z,12.85
2017-10-26T04:09:27.093Z,12.74
2017-10-26T04:10:27.075Z,12.76
2017-10-26T04:11:27.054Z,12.85
2017-10-26T04:12:27.026Z,12.91
2017-10-26T04:13:27.007Z,12.85
2017-10-26T04:14:26.990Z,12.92
2017-10-26T04:15:26.960Z,12.87
2017-10-26T04:16:26.939Z,12.91
2017-10-26T04:17:26.914Z,12.99
2017-10-26T04:18:26.571Z,13.01
2017-10-26T04:19:26.868Z,12.94
2017-10-26T04:20:26.846Z,12.92
2017-10-26T04:21:26.821Z,13.06
2017-10-26T04:22:26.478Z,13.07
2017-10-26T04:23:26.782Z,13.04
2017-10-26T04:24:26.760Z,13.06
2017-10-26T04:25:26.736Z,13.07
2017-10-26T04:26:26.721Z,13.04
2017-10-26T04:27:26.692Z,12.98
2017-10-26T04:28:26.676Z,13.01
2017-10-26T04:29:26.657Z,13.13
2017-10-26T04:30:26.617Z,13.16
2017-10-26T04:31:25.961Z,13.14
2017-10-26T04:32:26.580Z,13.13
2017-10-26T04:33:26.551Z,13.06
2017-10-26T04:34:26.529Z,12.99
2017-10-26T04:35:26.197Z,13.14
2017-10-26T04:36:26.479Z,13.1
2017-10-26T04:37:26.469Z,13.14
2017-10-26T04:38:26.440Z,13.14
2017-10-26T04:39:26.423Z,13.07
2017-10-26T04:40:26.391Z,13.17
2017-10-26T04:41:26.373Z,13.09
2017-10-26T04:42:26.355Z,13.12
2017-10-26T04:43:26.327Z,13.14
2017-10-26T04:44:25.990Z,13.13
2017-10-26T04:45:26.284Z,13.12
2017-10-26T04:46:26.260Z,13.12
2017-10-26T04:47:26.235Z,13.16
2017-10-26T04:48:26.221Z,13.14
2017-10-26T04:49:26.193Z,13.17
2017-10-26T04:50:26.170Z,13.14
2017-10-26T04:51:26.157Z,13.13
2017-10-26T04:52:26.147Z,13.13
2017-10-26T04:53:26.120Z,13.22
2017-10-26T04:54:26.083Z,13.12
2017-10-26T04:55:26.057Z,13.14
2017-10-26T04:56:26.036Z,13.21
2017-10-26T04:57:26.019Z,13.25
2017-10-26T04:58:25.998Z,13.12
2017-10-26T04:59:25.983Z,13.12
2017-10-26T05:00:25.951Z,13.13
2017-10-26T05:01:25.921Z,13.14
2017-10-26T05:02:25.901Z,13.21
2017-10-26T05:03:25.882Z,13.16
2017-10-26T05:04:25.865Z,13.19
2017-10-26T05:05:25.835Z,13.17
2017-10-26T05:06:25.813Z,13.17
2017-10-26T05:07:25.807Z,13.17
2017-10-26T05:08:25.770Z,13.24
2017-10-26T05:09:25.741Z,13.14
2017-10-26T05:10:25.723Z,13.13
2017-10-26T05:11:25.718Z,13.21
2017-10-26T05:12:25.683Z,13.21
2017-10-26T05:13:25.658Z,13.19
2017-10-26T05:14:25.631Z,13.21
2017-10-26T05:15:25.622Z,13.21
2017-10-26T05:16:25.593Z,13.16
2017-10-26T05:17:25.569Z,13.17
2017-10-26T05:18:25.556Z,13.13
2017-10-26T05:19:25.539Z,13.14
2017-10-26T05:20:25.502Z,13.12
2017-10-26T05:21:25.468Z,13.16
2017-10-26T05:22:25.138Z,13.22
2017-10-26T05:23:25.450Z,13.17
2017-10-26T05:24:25.417Z,13.07
2017-10-26T05:25:25.384Z,13.14
2017-10-26T05:26:25.404Z,13.09
2017-10-26T05:27:25.341Z,13.16
2017-10-26T05:28:25.326Z,13.12
2017-10-26T05:29:25.295Z,13.16
2017-10-26T05:30:25.275Z,13.12
2017-10-26T05:31:25.256Z,13.17
2017-10-26T05:32:25.227Z,13.13
2017-10-26T05:33:25.219Z,13.16
2017-10-26T05:34:25.187Z,13.12
2017-10-26T05:35:25.159Z,13.17
2017-10-26T05:36:25.140Z,13.09
2017-10-26T05:37:24.801Z,13.16
2017-10-26T05:38:25.090Z,13.13
2017-10-26T05:39:25.071Z,13.16
2017-10-26T05:40:25.049Z,13.13
2017-10-26T05:41:25.025Z,13.06
2017-10-26T05:42:25.005Z,13.09
2017-10-26T05:43:24.661Z,13.01
2017-10-26T05:44:24.963Z,13.04
2017-10-26T05:45:24.933Z,13.14
2017-10-26T05:46:24.912Z,13.13
2017-10-26T05:47:24.899Z,13.04
2017-10-26T05:48:24.878Z,13.09
2017-10-26T05:49:24.852Z,13.04
2017-10-26T05:50:24.822Z,12.99
2017-10-26T05:51:24.806Z,12.91
2017-10-26T05:52:24.783Z,13.07
2017-10-26T05:53:24.763Z,13.06
2017-10-26T05:54:24.732Z,13.04
2017-10-26T05:55:24.713Z,12.96
2017-10-26T05:56:24.697Z,13.03
2017-10-26T05:57:24.660Z,13.04
2017-10-26T05:58:24.643Z,13.04
2017-10-26T05:59:24.301Z,13.03
2017-10-26T06:00:24.599Z,13.04
2017-10-26T06:01:24.573Z,13.07
2017-10-26T06:02:24.564Z,13.03
2017-10-26T06:03:24.545Z,12.98
2017-10-26T06:04:24.514Z,12.99
2017-10-26T06:05:24.491Z,13.04
2017-10-26T06:06:24.468Z,12.99
2017-10-26T06:07:24.440Z,13.06
2017-10-26T06:08:24.419Z,13.01
2017-10-26T06:09:24.404Z,13.07
2017-10-26T06:10:24.381Z,13.03
2017-10-26T06:11:24.405Z,13.06
2017-10-26T06:12:24.328Z,13.01
2017-10-26T06:13:24.318Z,13.07
2017-10-26T06:14:24.284Z,13.06
2017-10-26T06:15:24.263Z,13.07
2017-10-26T06:16:24.248Z,13.14
2017-10-26T06:17:23.575Z,13.07
2017-10-26T06:18:24.199Z,13.04
2017-10-26T06:19:24.186Z,13.07
2017-10-26T06:20:24.147Z,13.01
2017-10-26T06:21:24.473Z,13.13
2017-10-26T06:22:24.107Z,13.09
2017-10-26T06:23:24.097Z,13.04
2017-10-26T06:24:24.064Z,13.09
2017-10-26T06:25:24.038Z,13.13
2017-10-26T06:26:24.051Z,13.04
2017-10-26T06:27:23.996Z,13.06
2017-10-26T06:28:23.973Z,13.13
2017-10-26T06:29:23.633Z,13.09
2017-10-26T06:30:23.922Z,13.01
2017-10-26T06:31:23.914Z,13.14
2017-10-26T06:32:23.884Z,13.1
2017-10-26T06:33:23.869Z,13.1
2017-10-26T06:34:23.836Z,13.07
2017-10-26T06:35:23.832Z,13.09
2017-10-26T06:36:23.790Z,13.12
2017-10-26T06:37:23.767Z,13.12
2017-10-26T06:38:23.750Z,13.17
2017-10-26T06:39:23.732Z,13.16
2017-10-26T06:40:23.739Z,13.12
2017-10-26T06:41:23.689Z,13.14
2017-10-26T06:42:23.665Z,13.13
2017-10-26T06:43:23.627Z,13.16
2017-10-26T06:44:23.611Z,13.17
2017-10-26T06:45:23.590Z,13.21
2017-10-26T06:46:23.563Z,13.25
2017-10-26T06:47:23.539Z,13.31
2017-10-26T06:48:23.515Z,13.25
2017-10-26T06:49:23.499Z,13.29
2017-10-26T06:50:23.822Z,13.31
2017-10-26T06:51:23.138Z,13.39
2017-10-26T06:52:23.432Z,13.38
2017-10-26T06:53:23.413Z,13.44
2017-10-26T06:54:23.073Z,13.36
2017-10-26T06:55:23.398Z,13.39
2017-10-26T06:56:23.347Z,13.43
2017-10-26T06:57:23.322Z,13.41
2017-10-26T06:58:23.297Z,13.39
2017-10-26T06:59:23.269Z,13.46
2017-10-26T07:00:23.253Z,13.44
2017-10-26T07:01:23.230Z,13.41
2017-10-26T07:02:23.215Z,13.44
2017-10-26T07:03:23.187Z,13.51
2017-10-26T07:04:23.159Z,13.53
2017-10-26T07:05:23.144Z,13.5
2017-10-26T07:06:23.122Z,13.51
2017-10-26T07:07:23.107Z,13.57
2017-10-26T07:08:23.079Z,13.57
2017-10-26T07:09:23.051Z,13.63
2017-10-26T07:10:23.036Z,13.62
2017-10-26T07:11:23.006Z,13.62
2017-10-26T07:12:22.982Z,13.57
2017-10-26T07:13:22.963Z,13.65
2017-10-26T07:14:22.935Z,13.63
2017-10-26T07:15:22.915Z,13.68
2017-10-26T07:16:22.894Z,13.72
2017-10-26T07:17:22.874Z,13.71
2017-10-26T07:18:22.856Z,13.79
2017-10-26T07:19:22.834Z,13.71
2017-10-26T07:20:22.818Z,13.73
2017-10-26T07:21:22.782Z,13.76
2017-10-26T07:22:22.760Z,13.76
2017-10-26T07:23:22.737Z,13.73
2017-10-26T07:24:22.723Z,13.83
2017-10-26T07:25:22.374Z,13.91
2017-10-26T07:26:22.674Z,13.91
2017-10-26T07:27:22.651Z,13.94
2017-10-26T07:28:22.985Z,13.93
2017-10-26T07:29:22.604Z,13.99
2017-10-26T07:30:22.587Z,14.01
2017-10-26T07:31:22.564Z,13.94
2017-10-26T07:32:22.221Z,13.94
2017-10-26T07:33:22.212Z,13.94
2017-10-26T07:34:22.493Z,13.98
2017-10-26T07:35:22.492Z,14.05
2017-10-26T07:36:22.452Z,13.99
2017-10-26T07:37:22.426Z,13.99
2017-10-26T07:38:22.089Z,13.99
2017-10-26T07:39:22.378Z,14.04
2017-10-26T07:40:22.361Z,14.12
2017-10-26T07:41:22.347Z,14.08
2017-10-26T07:42:22.315Z,14.09
2017-10-26T07:43:22.313Z,14.09
2017-10-26T07:44:22.268Z,14.21
2017-10-26T07:45:22.255Z,14.12
2017-10-26T07:46:22.226Z,14.2
2017-10-26T07:47:22.209Z,14.21
2017-10-26T07:48:22.182Z,14.21
2017-10-26T07:49:21.846Z,14.16
2017-10-26T07:50:22.146Z,14.23
2017-10-26T07:51:22.119Z,14.13
2017-10-26T07:52:22.097Z,14.26
2017-10-26T07:53:22.069Z,14.26
2017-10-26T07:54:22.058Z,14.24
2017-10-26T07:55:22.031Z,14.3
2017-10-26T07:56:22.016Z,14.29
2017-10-26T07:57:21.992Z,14.26
2017-10-26T07:58:21.979Z,14.24
2017-10-26T07:59:21.940Z,14.27
2017-10-26T08:00:21.929Z,14.26
2017-10-26T08:01:21.904Z,14.26
2017-10-26T08:02:21.900Z,14.31
2017-10-26T08:03:21.855Z,14.34
2017-10-26T08:04:21.527Z,14.26
2017-10-26T08:05:21.502Z,14.29
2017-10-26T08:06:21.794Z,14.27
2017-10-26T08:07:21.459Z,14.3
2017-10-26T08:08:21.744Z,14.31
2017-10-26T08:09:21.727Z,14.26
2017-10-26T08:10:21.704Z,14.29
2017-10-26T08:11:21.695Z,14.31
2017-10-26T08:12:21.675Z,14.38
2017-10-26T08:13:21.653Z,14.41
2017-10-26T08:14:21.625Z,14.38
2017-10-26T08:15:21.279Z,14.36
2017-10-26T08:16:21.577Z,14.42
2017-10-26T08:17:21.568Z,14.42
2017-10-26T08:18:21.535Z,14.38
2017-10-26T08:19:21.509Z,14.41
2017-10-26T08:20:21.486Z,14.44
2017-10-26T08:21:21.465Z,14.44
2017-10-26T08:22:21.448Z,14.48
2017-10-26T08:23:21.420Z,14.42
2017-10-26T08:24:21.405Z,14.53
2017-10-26T08:25:21.401Z,14.45
2017-10-26T08:26:21.365Z,14.48
2017-10-26T08:27:21.344Z,14.52
2017-10-26T08:28:21.319Z,14.52
2017-10-26T08:29:20.990Z,14.48
2017-10-26T08:30:20.954Z,14.53
2017-10-26T08:31:20.945Z,14.59
2017-10-26T08:32:21.273Z,14.69
2017-10-26T08:33:21.274Z,14.64
2017-10-26T08:34:21.184Z,14.67
2017-10-26T08:35:21.176Z,14.64
2017-10-26T08:36:21.144Z,14.63
2017-10-26T08:37:21.140Z,14.69
2017-10-26T08:38:21.110Z,14.82
2017-10-26T08:39:21.076Z,14.74
2017-10-26T08:40:21.177Z,14.69
2017-10-26T08:41:20.712Z,14.8
2017-10-26T08:42:21.011Z,14.86
2017-10-26T08:43:20.997Z,14.94
2017-10-26T08:44:20.965Z,14.87
2017-10-26T08:45:20.621Z,14.97
2017-10-26T08:46:20.924Z,14.85
2017-10-26T08:47:20.909Z,14.94
2017-10-26T08:48:20.897Z,14.86
2017-10-26T08:49:20.862Z,15
2017-10-26T08:50:20.875Z,14.91
2017-10-26T08:51:20.853Z,14.86
2017-10-26T08:52:20.793Z,14.85
2017-10-26T08:53:20.763Z,14.9
2017-10-26T08:54:20.758Z,14.91
2017-10-26T08:55:20.730Z,14.9
2017-10-26T08:56:20.714Z,14.98
2017-10-26T08:57:20.688Z,14.98
2017-10-26T08:58:20.667Z,14.97
2017-10-26T08:59:20.330Z,14.98
2017-10-26T09:00:20.627Z,14.98
2017-10-26T09:01:20.601Z,15.01
2017-10-26T09:02:20.582Z,15
2017-10-26T09:03:20.585Z,14.9
2017-10-26T09:04:20.541Z,15.03
2017-10-26T09:05:20.519Z,15.03
2017-10-26T09:06:20.497Z,15
2017-10-26T09:07:20.470Z,15.04
2017-10-26T09:08:20.450Z,15
2017-10-26T09:09:20.425Z,14.95
2017-10-26T09:10:20.408Z,14.85
2017-10-26T09:11:20.384Z,14.87
2017-10-26T09:12:20.365Z,14.83
2017-10-26T09:13:20.345Z,14.83
2017-10-26T09:14:20.331Z,14.79
2017-10-26T09:15:20.299Z,14.83
2017-10-26T09:16:20.273Z,14.91
2017-10-26T09:17:20.263Z,14.83
2017-10-26T09:18:20.239Z,14.87
2017-10-26T09:19:20.208Z,14.91
2017-10-26T09:20:20.192Z,14.91
2017-10-26T09:21:20.179Z,14.83
2017-10-26T09:22:20.146Z,14.87
2017-10-26T09:23:20.142Z,15
2017-10-26T09:24:20.103Z,15
2017-10-26T09:25:19.761Z,14.95
2017-10-26T09:26:20.410Z,15.01
2017-10-26T09:27:20.044Z,15.03
2017-10-26T09:28:20.028Z,15.07
2017-10-26T09:29:19.992Z,15.07
2017-10-26T09:30:19.983Z,14.98
2017-10-26T09:31:19.958Z,15
2017-10-26T09:32:19.611Z,14.97
2017-10-26T09:33:19.907Z,15.07
2017-10-26T09:34:19.889Z,15.07
2017-10-26T09:35:19.870Z,14.95
2017-10-26T09:36:19.847Z,15.03
2017-10-26T09:37:19.824Z,15.11
2017-10-26T09:38:19.832Z,15.12
2017-10-26T09:39:19.786Z,15.12
2017-10-26T09:40:19.753Z,15.09
2017-10-26T09:41:19.453Z,15.12
2017-10-26T09:42:19.716Z,15.11
2017-10-26T09:43:19.709Z,15.13
2017-10-26T09:44:19.677Z,15.2
2017-10-26T09:45:19.648Z,15.15
2017-10-26T09:46:19.307Z,15.2
2017-10-26T09:47:19.615Z,15.18
2017-10-26T09:48:19.593Z,15.13
2017-10-26T09:49:19.565Z,15.28
2017-10-26T09:50:19.549Z,15.31
2017-10-26T09:51:19.525Z,15.25
2017-10-26T09:52:19.504Z,15.3
2017-10-26T09:53:19.482Z,15.41
2017-10-26T09:54:19.467Z,15.52
2017-10-26T09:55:19.439Z,15.55
2017-10-26T09:56:19.411Z,15.46
2017-10-26T09:57:19.398Z,15.62
2017-10-26T09:58:19.374Z,15.68
2017-10-26T09:59:19.383Z,15.85
2017-10-26T10:00:19.013Z,15.84
2017-10-26T10:01:19.307Z,15.91
2017-10-26T10:02:19.292Z,15.95
2017-10-26T10:03:19.269Z,15.99
2017-10-26T10:04:19.247Z,15.89
2017-10-26T10:05:19.219Z,15.95
2017-10-26T10:06:19.353Z,15.99
2017-10-26T10:07:19.188Z,15.99
2017-10-26T10:08:19.165Z,15.98
2017-10-26T10:09:19.145Z,15.93
2017-10-26T10:10:19.118Z,16.03
2017-10-26T10:11:19.109Z,16.01
2017-10-26T10:12:18.760Z,15.95
2017-10-26T10:13:19.059Z,15.95
2017-10-26T10:14:19.052Z,15.98
2017-10-26T10:15:19.025Z,15.98
2017-10-26T10:16:18.995Z,15.96
2017-10-26T10:17:18.654Z,15.96
2017-10-26T10:18:18.628Z,15.99
2017-10-26T10:19:18.939Z,15.99
2017-10-26T10:20:18.909Z,15.99
2017-10-26T10:21:18.889Z,16.03
2017-10-26T10:22:18.556Z,15.86
2017-10-26T10:23:18.844Z,15.95
2017-10-26T10:24:18.819Z,15.93
2017-10-26T10:25:18.819Z,15.96
2017-10-26T10:26:18.781Z,15.93
2017-10-26T10:27:18.766Z,15.96
2017-10-26T10:28:18.756Z,15.95
2017-10-26T10:29:18.717Z,16.03
2017-10-26T10:30:18.707Z,16.07
2017-10-26T10:31:18.688Z,16.27
2017-10-26T10:32:18.659Z,16.27
2017-10-26T10:33:18.639Z,16.34
2017-10-26T10:34:18.620Z,16.4
2017-10-26T10:35:18.593Z,16.48
2017-10-26T10:36:18.581Z,16.5
2017-10-26T10:37:18.614Z,16.57
2017-10-26T10:38:18.535Z,16.57
2017-10-26T10:39:18.195Z,16.63
2017-10-26T10:40:18.506Z,16.63
2017-10-26T10:41:18.498Z,16.69
2017-10-26T10:42:18.133Z,16.66
2017-10-26T10:43:18.433Z,16.69
2017-10-26T10:44:18.415Z,16.66
2017-10-26T10:45:18.076Z,16.69
2017-10-26T10:46:18.376Z,16.75
2017-10-26T10:47:18.351Z,16.73
2017-10-26T10:48:18.011Z,16.75
2017-10-26T10:49:18.302Z,16.91
2017-10-26T10:50:17.978Z,16.78
2017-10-26T10:51:18.268Z,16.88
2017-10-26T10:52:18.244Z,16.92
2017-10-26T10:53:17.583Z,16.95
2017-10-26T10:54:18.205Z,16.9
2017-10-26T10:55:18.182Z,16.98
2017-10-26T10:56:18.176Z,16.96
2017-10-26T10:57:18.149Z,16.96
2017-10-26T10:58:18.121Z,17.02
2017-10-26T10:59:18.122Z,17
2017-10-26T11:00:17.767Z,17.09
2017-10-26T11:01:18.066Z,17.12
2017-10-26T11:02:18.054Z,17.22
2017-10-26T11:03:18.022Z,17.32
2017-10-26T11:04:18.022Z,17.39
2017-10-26T11:05:17.999Z,17.28
2017-10-26T11:06:17.956Z,17.3
2017-10-26T11:07:17.936Z,17.27
2017-10-26T11:08:17.919Z,17.39
2017-10-26T11:09:17.584Z,17.43
2017-10-26T11:10:17.883Z,17.33
2017-10-26T11:11:17.860Z,17.36
2017-10-26T11:12:17.844Z,17.38
2017-10-26T11:13:17.823Z,17.36
2017-10-26T11:14:17.796Z,17.39
2017-10-26T11:15:17.785Z,17.33
2017-10-26T11:16:17.759Z,17.2
2017-10-26T11:17:17.739Z,17.2
2017-10-26T11:18:17.719Z,17.1
2017-10-26T11:19:17.695Z,17.09
2017-10-26T11:20:17.684Z,17.1
2017-10-26T11:21:17.671Z,17.12
2017-10-26T11:22:17.634Z,17.07
2017-10-26T11:23:17.627Z,17.1
2017-10-26T11:24:17.619Z,17.1
2017-10-26T11:25:17.576Z,17.1
2017-10-26T11:26:17.558Z,17
2017-10-26T11:27:17.532Z,17.05
2017-10-26T11:28:17.511Z,17
2017-10-26T11:29:17.489Z,17.06
2017-10-26T11:30:17.482Z,17.02
2017-10-26T11:31:17.456Z,17
2017-10-26T11:32:17.120Z,17.02
2017-10-26T11:33:17.429Z,17.03
2017-10-26T11:34:17.070Z,16.99
2017-10-26T11:35:17.050Z,17.02
2017-10-26T11:36:17.349Z,17
2017-10-26T11:37:17.340Z,16.95
2017-10-26T11:38:17.310Z,17.02
2017-10-26T11:39:17.292Z,17.07
2017-10-26T11:40:16.959Z,17.12
2017-10-26T11:41:17.244Z,17.14
2017-10-26T11:42:17.256Z,17.2
2017-10-26T11:43:16.894Z,17.2
2017-10-26T11:44:17.190Z,17.25
2017-10-26T11:45:17.165Z,17.17
2017-10-26T11:46:17.151Z,17.2
2017-10-26T11:47:17.131Z,17.27
2017-10-26T11:48:17.105Z,17.17
2017-10-26T11:49:17.089Z,17.27
2017-10-26T11:50:17.068Z,17.28
2017-10-26T11:51:16.727Z,17.42
2017-10-26T11:52:17.032Z,17.3
2017-10-26T11:53:16.685Z,17.38
2017-10-26T11:54:16.985Z,17.38
2017-10-26T11:55:16.966Z,17.3
2017-10-26T11:56:16.943Z,17.27
2017-10-26T11:57:16.929Z,17.27
2017-10-26T11:58:16.898Z,17.32
2017-10-26T11:59:16.571Z,17.32
2017-10-26T12:00:16.871Z,17.25
2017-10-26T12:01:16.521Z,17.24
2017-10-26T12:02:16.826Z,17.28
2017-10-26T12:03:16.798Z,17.27
2017-10-26T12:04:16.783Z,17.27
2017-10-26T12:05:16.780Z,17.32
2017-10-26T12:06:16.745Z,17.35
2017-10-26T12:07:16.724Z,17.33
2017-10-26T12:08:16.371Z,17.42
2017-10-26T12:09:16.680Z,17.33
2017-10-26T12:10:16.345Z,17.43
2017-10-26T12:11:16.633Z,17.46
2017-10-26T12:12:16.624Z,17.54
2017-10-26T12:13:16.603Z,17.6
2017-10-26T12:14:16.269Z,17.51
2017-10-26T12:15:16.556Z,17.58
2017-10-26T12:16:16.550Z,17.54
2017-10-26T12:17:16.516Z,17.6
2017-10-26T12:18:16.495Z,17.62
2017-10-26T12:19:16.487Z,17.58
2017-10-26T12:20:16.474Z,17.6
2017-10-26T12:21:16.442Z,17.47
2017-10-26T12:22:16.414Z,17.47
2017-10-26T12:23:16.398Z,17.45
2017-10-26T12:24:16.382Z,17.55
2017-10-26T12:25:16.354Z,17.55
2017-10-26T12:26:16.020Z,17.49
2017-10-26T12:27:16.327Z,17.4
2017-10-26T12:28:16.290Z,17.53
2017-10-26T12:29:16.283Z,17.47
2017-10-26T12:30:16.256Z,17.57
2017-10-26T12:31:16.241Z,17.54
2017-10-26T12:32:15.919Z,17.47
2017-10-26T12:33:16.199Z,17.43
2017-10-26T12:34:16.188Z,17.53
2017-10-26T12:35:16.162Z,17.39
2017-10-26T12:36:15.825Z,17.4
2017-10-26T12:37:15.794Z,17.42
2017-10-26T12:38:16.107Z,17.39
2017-10-26T12:39:15.753Z,17.3
2017-10-26T12:40:16.054Z,17.3
2017-10-26T12:41:16.031Z,17.35
2017-10-26T12:42:15.689Z,17.33
2017-10-26T12:43:15.994Z,17.33
2017-10-26T12:44:15.971Z,17.36
2017-10-26T12:45:15.963Z,17.28
2017-10-26T12:46:15.938Z,17.27
2017-10-26T12:47:15.922Z,17.21
2017-10-26T12:48:15.887Z,17.22
2017-10-26T12:49:15.875Z,17.17
2017-10-26T12:50:15.848Z,17.17
2017-10-26T12:51:15.831Z,17.2
2017-10-26T12:52:15.487Z,17.25
2017-10-26T12:53:15.794Z,17.25
2017-10-26T12:54:15.450Z,17.21
2017-10-26T12:55:15.434Z,17.2